createdAt,value
2022-09-02T00:00:48.025Z,99375.63
2022-09-02T00:03:35.545Z,99374.06
2022-09-02T00:06:21.485Z,99374.06
2022-09-02T00:09:09.035Z,99362.59
2022-09-02T00:11:56.506Z,99364.19
2022-09-02T00:14:42.103Z,99357.03
2022-09-02T00:17:28.155Z,99355.47
2022-09-02T00:20:13.668Z,99359.03
2022-09-02T00:22:59.991Z,99353.88
2022-09-02T00:25:45.755Z,99358.66
2022-09-02T00:28:31.073Z,99353.88
2022-09-02T00:31:17.637Z,99356.66
2022-09-02T00:34:04.766Z,99353.88
2022-09-02T00:36:50.566Z,99352.31
2022-09-02T00:39:37.088Z,99344.41
2022-09-02T00:42:24.337Z,99351.13
2022-09-02T00:45:11.216Z,99347.97
2022-09-02T00:47:56.859Z,99347.19
2022-09-02T00:50:42.557Z,99347.59
2022-09-02T00:53:28.515Z,99348.41
2022-09-02T00:56:20.557Z,99344.81
2022-09-02T00:59:07.293Z,99341.25
2022-09-02T01:01:52.901Z,99342.03
2022-09-02T01:04:38.743Z,99344.03
2022-09-02T01:07:27.273Z,99342.78
2022-09-02T01:10:16.529Z,99345.16
2022-09-02T01:13:10.216Z,99349.88
2022-09-02T01:16:02.362Z,99343.16
2022-09-02T01:18:51.189Z,99339.19
2022-09-02T01:21:36.796Z,99339.97
2022-09-02T01:24:26.075Z,99344.75
2022-09-02T01:27:15.971Z,99330.50
2022-09-02T01:30:01.954Z,99336.03
2022-09-02T01:32:47.789Z,99345.94
2022-09-02T01:35:33.106Z,99346.34
2022-09-02T01:38:20.334Z,99338.44
2022-09-02T01:41:06.675Z,99336.09
2022-09-02T01:43:52.852Z,99335.72
2022-09-02T01:46:38.607Z,99337.72
2022-09-02T01:49:24.464Z,99335.72
2022-09-02T01:52:09.786Z,99336.13
2022-09-02T01:54:56.834Z,99336.13
2022-09-02T01:57:42.084Z,99335.34
2022-09-02T02:00:30.061Z,99330.59
2022-09-02T02:03:15.933Z,99334.16
2022-09-02T02:06:07.469Z,99331.41
2022-09-02T02:08:55.615Z,99329.06
2022-09-02T02:11:40.967Z,99328.28
2022-09-02T02:14:26.342Z,99324.34
2022-09-02T02:17:12.275Z,99328.69
2022-09-02T02:19:58.698Z,99329.09
2022-09-02T02:22:44.724Z,99322.00
2022-09-02T02:25:30.331Z,99321.22
2022-09-02T02:28:15.652Z,99324.41
2022-09-02T02:31:01.528Z,99323.63
2022-09-02T02:33:48.405Z,99324.41
2022-09-02T02:36:35.322Z,99321.28
2022-09-02T02:39:20.915Z,99324.06
2022-09-02T02:42:07.260Z,99321.72
2022-09-02T02:44:53.037Z,99317.75
2022-09-02T02:47:46.153Z,99322.88
2022-09-02T02:50:33.551Z,99326.47
2022-09-02T02:53:19.454Z,99316.59
2022-09-02T02:56:05.648Z,99318.97
2022-09-02T02:58:51.455Z,99317.44
2022-09-02T03:01:37.329Z,99317.78
2022-09-02T03:04:24.536Z,99317.84
2022-09-02T03:07:10.626Z,99314.28
2022-09-02T03:09:56.032Z,99314.66
2022-09-02T03:12:41.922Z,99318.66
2022-09-02T03:15:27.971Z,99317.47
2022-09-02T03:18:14.402Z,99312.28
2022-09-02T03:21:00.519Z,99307.59
2022-09-02T03:23:46.708Z,99315.19
2022-09-02T03:26:32.887Z,99308.44
2022-09-02T03:29:18.776Z,99312.81
2022-09-02T03:32:05.046Z,99307.69
2022-09-02T03:34:54.448Z,99313.66
2022-09-02T03:37:39.962Z,99315.28
2022-09-02T03:40:27.862Z,99307.78
2022-09-02T03:43:15.036Z,99311.78
2022-09-02T03:46:01.750Z,99312.53
2022-09-02T03:48:47.829Z,99308.19
2022-09-02T03:51:34.493Z,99305.03
2022-09-02T03:54:19.884Z,99303.91
2022-09-02T03:57:05.507Z,99305.03
2022-09-02T03:59:51.988Z,99302.38
2022-09-02T04:02:37.647Z,99302.78
2022-09-02T04:05:24.495Z,99309.94
2022-09-02T04:08:13.102Z,99305.16
2022-09-02T04:10:58.394Z,99309.09
2022-09-02T04:13:46.573Z,99310.25
2022-09-02T04:16:36.217Z,99310.63
2022-09-02T04:19:27.222Z,99310.19
2022-09-02T04:22:12.700Z,99312.97
2022-09-02T04:24:58.343Z,99314.53
2022-09-02T04:27:43.586Z,99315.31
2022-09-02T04:30:29.535Z,99309.72
2022-09-02T04:33:15.391Z,99314.44
2022-09-02T04:36:06.325Z,99312.44
2022-09-02T04:38:53.967Z,99306.84
2022-09-02T04:41:43.739Z,99307.22
2022-09-02T04:44:32.020Z,99309.59
2022-09-02T04:47:18.822Z,99303.63
2022-09-02T04:50:04.553Z,99304.81
2022-09-02T04:52:52.863Z,99308.75
2022-09-02T04:55:41.162Z,99312.31
2022-09-02T04:58:28.922Z,99309.59
2022-09-02T05:01:21.161Z,99308.44
2022-09-02T05:04:09.787Z,99309.63
2022-09-02T05:07:01.970Z,99306.47
2022-09-02T05:09:50.506Z,99307.25
2022-09-02T05:12:37.172Z,99312.88
2022-09-02T05:15:22.357Z,99312.88
2022-09-02T05:18:07.595Z,99308.94
2022-09-02T05:20:53.038Z,99312.09
2022-09-02T05:23:38.925Z,99313.28
2022-09-02T05:26:25.322Z,99309.72
2022-09-02T05:29:13.584Z,99313.69
2022-09-02T05:32:00.600Z,99306.59
2022-09-02T05:34:46.162Z,99304.66
2022-09-02T05:37:31.556Z,99296.75
2022-09-02T05:40:22.563Z,99295.56
2022-09-02T05:43:09.108Z,99303.91
2022-09-02T05:45:55.515Z,99298.34
2022-09-02T05:49:00.353Z,99291.59
2022-09-02T05:51:49.501Z,99292.41
2022-09-02T05:54:40.108Z,99298.75
2022-09-02T05:57:28.942Z,99293.59
2022-09-02T06:00:18.350Z,99300.75
2022-09-02T06:03:19.463Z,99292.41
2022-09-02T06:06:07.126Z,99292.84
2022-09-02T06:08:56.010Z,99288.06
2022-09-02T06:11:45.412Z,99291.28
2022-09-02T06:14:33.594Z,99288.91
2022-09-02T06:17:19.381Z,99290.91
2022-09-02T06:20:09.022Z,99293.22
2022-09-02T06:22:56.077Z,99288.91
2022-09-02T06:25:45.152Z,99294.44
2022-09-02T06:28:32.528Z,99300.00
2022-09-02T06:31:22.129Z,99291.69
2022-09-02T06:34:09.184Z,99290.47
2022-09-02T06:36:55.045Z,99284.50
2022-09-02T06:39:44.835Z,99292.03
2022-09-02T06:42:35.310Z,99290.06
2022-09-02T06:45:28.568Z,99278.97
2022-09-02T06:48:17.378Z,99276.97
2022-09-02T06:51:03.205Z,99283.31
2022-09-02T06:53:50.055Z,99282.50
2022-09-02T06:56:36.259Z,99280.97
2022-09-02T06:59:22.250Z,99286.50
2022-09-02T07:02:11.299Z,99283.72
2022-09-02T07:05:10.490Z,99288.44
2022-09-02T07:07:56.854Z,99281.34
2022-09-02T07:10:42.819Z,99286.47
2022-09-02T07:13:28.107Z,99280.94
2022-09-02T07:16:20.428Z,99285.25
2022-09-02T07:19:18.492Z,99282.09
2022-09-02T07:22:06.987Z,99284.03
2022-09-02T07:24:57.435Z,99278.09
2022-09-02T07:27:45.767Z,99275.28
2022-09-02T07:30:31.702Z,99287.16
2022-09-02T07:33:23.837Z,99289.56
2022-09-02T07:36:12.494Z,99286.78
2022-09-02T07:39:00.220Z,99289.94
2022-09-02T07:41:49.192Z,99287.53
2022-09-02T07:44:36.767Z,99288.72
2022-09-02T07:47:23.287Z,99290.69
2022-09-02T07:50:20.709Z,99296.22
2022-09-02T07:53:13.990Z,99291.47
2022-09-02T07:56:00.383Z,99287.06
2022-09-02T07:58:47.452Z,99291.44
2022-09-02T08:01:34.410Z,99283.88
2022-09-02T08:04:23.443Z,99293.00
2022-09-02T08:07:09.211Z,99285.81
2022-09-02T08:09:54.455Z,99283.81
2022-09-02T08:12:41.661Z,99292.16
2022-09-02T08:15:28.857Z,99288.19
2022-09-02T08:18:20.947Z,99281.44
2022-09-02T08:21:07.876Z,99289.75
2022-09-02T08:23:53.167Z,99276.63
2022-09-02T08:26:38.456Z,99281.78
2022-09-02T08:29:23.917Z,99285.38
2022-09-02T08:32:09.496Z,99275.06
2022-09-02T08:34:55.442Z,99285.38
2022-09-02T08:37:40.975Z,99280.97
2022-09-02T08:40:34.982Z,99279.78
2022-09-02T08:43:27.439Z,99280.53
2022-09-02T08:46:16.639Z,99280.97
2022-09-02T08:49:08.312Z,99278.56
2022-09-02T08:52:01.070Z,99277.38
2022-09-02T08:54:53.666Z,99275.38
2022-09-02T08:57:44.244Z,99271.41
2022-09-02T09:00:38.492Z,99272.19
2022-09-02T09:03:30.429Z,99269.41
2022-09-02T09:06:38.975Z,99272.56
2022-09-02T09:09:33.215Z,99264.63
2022-09-02T09:12:40.229Z,99257.91
2022-09-02T09:15:35.663Z,99257.09
2022-09-02T09:18:46.309Z,99256.69
2022-09-02T09:21:33.330Z,99256.28
2022-09-02T09:24:30.326Z,99254.69
2022-09-02T09:27:18.938Z,99261.06
2022-09-02T09:30:11.561Z,99255.50
2022-09-02T09:33:01.354Z,99250.72
2022-09-02T09:35:50.696Z,99255.84
2022-09-02T09:38:38.551Z,99240.41
2022-09-02T09:41:24.716Z,99249.09
2022-09-02T09:44:10.392Z,99249.50
2022-09-02T09:47:05.745Z,99256.22
2022-09-02T09:50:08.540Z,99260.16
2022-09-02T09:52:54.080Z,99249.06
2022-09-02T09:55:52.716Z,99253.78
2022-09-02T09:58:40.960Z,99254.97
2022-09-02T10:01:31.647Z,99245.06
2022-09-02T10:04:42.812Z,99243.50
2022-09-02T10:07:45.246Z,99237.97
2022-09-02T10:10:33.511Z,99234.34
2022-09-02T10:13:27.144Z,99223.72
2022-09-02T10:16:20.043Z,99228.47
2022-09-02T10:19:33.039Z,99229.69
2022-09-02T10:22:53.159Z,99229.28
2022-09-02T10:25:50.441Z,99218.16
2022-09-02T10:29:04.746Z,99221.31
2022-09-02T10:32:17.524Z,99225.66
2022-09-02T10:35:18.014Z,99220.47
2022-09-02T10:38:22.018Z,99220.09
2022-09-02T10:44:59.498Z,99209.84
2022-09-02T10:48:02.977Z,99208.66
2022-09-02T10:50:55.373Z,99212.63
2022-09-02T10:53:54.347Z,99212.25
2022-09-02T10:56:48.433Z,99211.09
2022-09-02T10:59:41.462Z,99213.44
2022-09-02T11:02:42.513Z,99204.75
2022-09-02T11:05:33.746Z,99203.97
2022-09-02T11:08:19.084Z,99196.84
2022-09-02T11:11:26.347Z,99200.41
2022-09-02T11:14:32.936Z,99198.03
2022-09-02T11:17:42.402Z,99207.16
2022-09-02T11:20:44.444Z,99199.25
2022-09-02T11:23:43.917Z,99194.13
2022-09-02T11:26:38.254Z,99197.69
2022-09-02T11:29:33.537Z,99198.13
2022-09-02T11:32:43.796Z,99192.13
2022-09-02T11:35:34.950Z,99197.69
2022-09-02T11:38:59.508Z,99194.59
2022-09-02T11:42:03.385Z,99189.78
2022-09-02T11:44:56.251Z,99192.25
2022-09-02T11:48:10.851Z,99182.34
2022-09-02T11:51:12.386Z,99179.16
2022-09-02T11:54:03.126Z,99187.53
2022-09-02T11:56:57.765Z,99191.09
2022-09-02T11:59:52.052Z,99185.91
2022-09-02T12:02:48.110Z,99187.47
2022-09-02T12:05:37.360Z,99175.19
2022-09-02T12:08:28.895Z,99175.56
2022-09-02T12:11:45.329Z,99176.38
2022-09-02T12:14:31.785Z,99176.34
2022-09-02T12:17:40.062Z,99161.19
2022-09-02T12:20:41.416Z,99164.75
2022-09-02T12:23:48.704Z,99158.78
2022-09-02T12:26:39.970Z,99151.72
2022-09-02T12:29:26.364Z,99146.59
2022-09-02T12:32:12.441Z,99144.66
2022-09-02T12:35:09.101Z,99147.44
2022-09-02T12:38:15.351Z,99144.56
2022-09-02T12:41:12.960Z,99138.09
2022-09-02T12:44:15.162Z,99130.88
2022-09-02T12:47:04.951Z,99133.94
2022-09-02T12:50:12.629Z,99137.09
2022-09-02T12:53:31.254Z,99130.72
2022-09-02T12:56:22.386Z,99123.13
2022-09-02T12:59:07.801Z,99126.63
2022-09-02T13:02:30.530Z,99125.34
2022-09-02T13:05:35.591Z,99123.31
2022-09-02T13:08:33.157Z,99115.69
2022-09-02T13:11:37.669Z,99118.38
2022-09-02T13:14:48.497Z,99121.53
2022-09-02T13:18:01.465Z,99118.75
2022-09-02T13:20:56.367Z,99111.94
2022-09-02T13:23:56.808Z,99109.09
2022-09-02T13:27:01.046Z,99102.00
2022-09-02T13:30:11.528Z,99105.59
2022-09-02T13:33:07.095Z,99107.53
2022-09-02T13:35:59.212Z,99098.00
2022-09-02T13:38:44.827Z,99104.69
2022-09-02T13:41:33.922Z,99097.50
2022-09-02T13:44:25.276Z,99092.28
2022-09-02T13:47:16.393Z,99099.44
2022-09-02T13:50:02.093Z,99091.88
2022-09-02T13:53:49.303Z,99092.59
2022-09-02T13:56:00.235Z,99093.03
2022-09-02T13:58:53.360Z,99087.47
2022-09-02T14:01:40.239Z,99083.41
2022-09-02T14:04:27.202Z,99080.22
2022-09-02T14:07:15.934Z,99077.44
2022-09-02T14:10:06.094Z,99081.34
2022-09-02T14:12:53.395Z,99079.06
2022-09-02T14:15:39.638Z,99073.44
2022-09-02T14:18:25.924Z,99077.78
2022-09-02T14:21:19.735Z,99069.81
2022-09-02T14:24:05.349Z,99070.59
2022-09-02T14:26:54.166Z,99079.69
2022-09-02T14:29:44.890Z,99065.81
2022-09-02T14:32:30.937Z,99070.28
2022-09-02T14:35:22.238Z,99069.50
2022-09-02T14:38:23.489Z,99077.69
2022-09-02T14:41:18.301Z,99068.59
2022-09-02T14:44:11.271Z,99068.66
2022-09-02T14:47:06.641Z,99067.88
2022-09-02T14:49:56.094Z,99073.88
2022-09-02T14:52:48.635Z,99069.44
2022-09-02T14:55:54.814Z,99067.50
2022-09-02T14:58:40.187Z,99069.88
2022-09-02T15:01:25.826Z,99066.69
2022-09-02T15:04:11.637Z,99067.16
2022-09-02T15:07:01.537Z,99057.22
2022-09-02T15:09:50.940Z,99058.69
2022-09-02T15:12:57.590Z,99063.44
2022-09-02T15:15:42.983Z,99054.75
2022-09-02T15:18:28.273Z,99058.69
2022-09-02T15:21:14.069Z,99058.34
2022-09-02T15:23:59.433Z,99057.47
2022-09-02T15:26:44.674Z,99057.53
2022-09-02T15:29:30.080Z,99063.44
2022-09-02T15:32:15.810Z,99059.13
2022-09-02T15:35:01.347Z,99048.78
2022-09-02T15:37:50.414Z,99061.47
2022-09-02T15:40:35.718Z,99048.00
2022-09-02T15:43:21.426Z,99050.38
2022-09-02T15:46:30.091Z,99054.34
2022-09-02T15:49:16.364Z,99049.66
2022-09-02T15:52:52.541Z,99054.28
2022-09-02T15:55:37.775Z,99046.38
2022-09-02T15:58:23.111Z,99050.69
2022-09-02T16:01:09.459Z,99048.28
2022-09-02T16:03:57.911Z,99052.22
2022-09-02T16:06:45.444Z,99045.06
2022-09-02T16:09:30.950Z,99041.88
2022-09-02T16:12:16.487Z,99041.44
2022-09-02T16:15:02.056Z,99043.00
2022-09-02T16:17:47.792Z,99035.88
2022-09-02T16:20:33.136Z,99041.09
2022-09-02T16:23:18.622Z,99044.56
2022-09-02T16:26:25.698Z,99038.25
2022-09-02T16:29:14.101Z,99045.78
2022-09-02T16:32:23.737Z,99033.03
2022-09-02T16:35:05.190Z,99030.63
2022-09-02T16:37:50.951Z,99026.97
2022-09-02T16:40:36.575Z,99028.97
2022-09-02T16:43:22.479Z,99026.97
2022-09-02T16:46:07.919Z,99025.31
2022-09-02T16:48:53.339Z,99019.75
2022-09-02T16:51:41.039Z,99017.78
2022-09-02T16:54:31.410Z,99023.69
2022-09-02T16:57:17.692Z,99015.00
2022-09-02T17:00:04.250Z,99013.88
2022-09-02T17:02:49.753Z,99008.75
2022-09-02T17:05:35.461Z,99008.75
2022-09-02T17:08:21.274Z,99010.28
2022-09-02T17:11:22.055Z,99004.81
2022-09-02T17:14:15.194Z,99001.19
2022-09-02T17:17:02.284Z,99010.81
2022-09-02T17:19:47.514Z,99007.59
2022-09-02T17:22:33.168Z,99014.28
2022-09-02T17:25:18.833Z,99006.38
2022-09-02T17:28:03.877Z,99014.66
2022-09-02T17:30:49.284Z,99021.75
2022-09-02T17:33:36.002Z,99013.44
2022-09-02T17:36:22.598Z,99016.66
2022-09-02T17:39:11.514Z,99013.06
2022-09-02T17:41:59.856Z,99011.88
2022-09-02T17:44:45.635Z,99023.34
2022-09-02T17:47:31.843Z,99019.75
2022-09-02T17:50:18.040Z,99013.06
2022-09-02T17:53:03.672Z,99017.06
2022-09-02T17:55:54.620Z,99016.19
2022-09-02T17:58:55.084Z,99019.84
2022-09-02T18:01:58.103Z,99018.28
2022-09-02T18:04:59.256Z,99026.19
2022-09-02T18:08:08.973Z,99032.97
2022-09-02T18:11:03.227Z,99028.53
2022-09-02T18:13:48.577Z,99030.97
2022-09-02T18:17:14.021Z,99042.44
2022-09-02T18:20:09.462Z,99043.72
2022-09-02T18:23:26.148Z,99038.94
2022-09-02T18:26:30.384Z,99042.50
2022-09-02T18:29:16.191Z,99046.06
2022-09-02T18:32:19.177Z,99048.84
2022-09-02T18:35:46.431Z,99039.31
2022-09-02T18:39:10.861Z,99051.63
2022-09-02T18:42:15.047Z,99051.63
2022-09-02T18:45:20.873Z,99045.72
2022-09-02T18:48:13.432Z,99052.41
2022-09-02T18:51:06.706Z,99054.75
2022-09-02T18:53:59.400Z,99052.69
2022-09-02T18:56:55.839Z,99049.84
2022-09-02T19:00:23.050Z,99052.91
2022-09-02T19:03:11.077Z,99049.84
2022-09-02T19:05:57.694Z,99043.50
2022-09-02T19:08:48.142Z,99046.34
2022-09-02T19:11:38.792Z,99047.47
2022-09-02T19:14:31.646Z,99046.34
2022-09-02T19:17:30.246Z,99048.25
2022-09-02T19:20:18.172Z,99055.09
2022-09-02T19:23:09.326Z,99061.91
2022-09-02T19:26:18.221Z,99059.63
2022-09-02T19:29:22.522Z,99060.03
2022-09-02T19:32:18.192Z,99056.41
2022-09-02T19:35:13.670Z,99052.47
2022-09-02T19:38:12.845Z,99056.50
2022-09-02T19:41:06.956Z,99052.13
2022-09-02T19:43:55.344Z,99054.19
2022-09-02T19:50:09.172Z,99053.16
2022-09-02T19:52:55.980Z,99053.56
2022-09-02T19:55:44.634Z,99056.84
2022-09-02T19:58:35.747Z,99056.84
2022-09-02T20:01:34.028Z,99055.25
2022-09-02T20:04:23.091Z,99054.84
2022-09-02T20:07:13.798Z,99060.41
2022-09-02T20:10:03.276Z,99056.91
2022-09-02T20:12:56.945Z,99059.31
2022-09-02T20:15:56.285Z,99059.69
2022-09-02T20:19:11.323Z,99061.69
2022-09-02T20:22:01.101Z,99062.09
2022-09-02T20:25:16.075Z,99068.88
2022-09-02T20:28:35.563Z,99075.63
2022-09-02T20:31:55.397Z,99074.06
2022-09-02T20:35:25.290Z,99066.56
2022-09-02T20:38:50.780Z,99066.56
2022-09-02T20:42:01.978Z,99066.22
2022-09-02T20:45:17.037Z,99069.00
2022-09-02T20:48:27.816Z,99080.53
2022-09-02T20:52:12.068Z,99076.63
2022-09-02T20:55:19.974Z,99082.53
2022-09-02T20:58:37.530Z,99076.63
2022-09-02T21:01:48.413Z,99078.59
2022-09-02T21:05:05.932Z,99077.81
2022-09-02T21:08:27.134Z,99075.91
2022-09-02T21:11:25.724Z,99084.25
2022-09-02T21:14:59.945Z,99082.66
2022-09-02T21:17:54.437Z,99083.47
2022-09-02T21:21:03.925Z,99081.53
2022-09-02T21:24:03.727Z,99083.53
2022-09-02T21:27:00.003Z,99089.06
2022-09-02T21:30:25.450Z,99078.81
2022-09-02T21:33:38.676Z,99086.72
2022-09-02T21:36:30.713Z,99095.47
2022-09-02T21:39:23.621Z,99093.13
2022-09-02T21:42:39.562Z,99083.22
2022-09-02T21:45:52.279Z,99093.19
2022-09-02T21:52:06.148Z,99094.03
2022-09-02T21:55:19.761Z,99092.81
2022-09-02T21:58:45.075Z,99096.03
2022-09-02T22:02:02.628Z,99091.25
2022-09-02T22:05:08.572Z,99087.34
2022-09-02T22:08:23.580Z,99097.66
2022-09-02T22:11:16.892Z,99098.09
2022-09-02T22:14:34.111Z,99100.06
2022-09-02T22:17:26.095Z,99091.75
2022-09-02T22:20:17.429Z,99088.97
2022-09-02T22:23:15.653Z,99080.66
2022-09-02T22:26:31.795Z,99073.94
2022-09-02T22:29:32.196Z,99075.91
2022-09-02T22:32:21.889Z,99071.59
2022-09-02T22:35:18.530Z,99071.59
2022-09-02T22:38:10.699Z,99071.59
2022-09-02T22:40:56.297Z,99066.44
2022-09-02T22:43:52.882Z,99062.53
2022-09-02T22:47:10.648Z,99068.09
2022-09-02T22:50:19.399Z,99069.28
2022-09-02T22:53:04.687Z,99068.47
2022-09-02T22:56:11.401Z,99070.47
2022-09-02T22:59:03.652Z,99076.03
2022-09-02T23:02:26.525Z,99060.59
2022-09-02T23:05:31.768Z,99055.41
2022-09-02T23:08:22.897Z,99053.81
2022-09-02T23:11:13.093Z,99052.69
2022-09-02T23:14:19.268Z,99059.00
2022-09-02T23:17:20.258Z,99063.41
2022-09-02T23:20:39.490Z,99059.41
2022-09-02T23:23:31.716Z,99057.88
2022-09-02T23:26:37.976Z,99051.53
2022-09-02T23:29:26.529Z,99057.09
2022-09-02T23:32:33.611Z,99049.94
2022-09-02T23:35:24.167Z,99045.63
2022-09-02T23:38:21.677Z,99055.50
2022-09-02T23:41:10.541Z,99045.63
2022-09-02T23:43:58.061Z,99055.50
2022-09-02T23:46:52.268Z,99038.06
2022-09-02T23:49:54.616Z,99044.41
2022-09-02T23:52:57.662Z,99041.25
2022-09-02T23:55:52.315Z,99042.06
2022-09-02T23:58:47.293Z,99035.72
